Aviation Digital Data Service (ADDS)

Output produced by METARs form (0914 UTC 26 January 2020)
found at http://www.aviationweather.gov/metar/data/
 
METAR text: RJNK 260900Z 04018KT 9999 FEW030 BKN/// 08/01 Q1027
Conditions at: RJNK (KOMATSU (CIV/JAS, JP) observed 0900 UTC 26 January 2020
Temperature: 8.0°C (46°F)
Dewpoint: 1.0°C (34°F) [RH = 61%]
Pressure (altimeter): 30.32 inches Hg (1027.0 mb)
Winds: from the NE (40 degrees) at 21 MPH (18 knots; 9.3 m/s)
Visibility: 6 or more miles (10+ km)
Ceiling: at least 12,000 feet AGL
Clouds: few clouds at 3000 feet AGL
Weather: no significant weather observed at this time

METAR text: RJNK 260800Z 03012KT 9999 FEW030 BKN250 09/M01 Q1026
Conditions at: RJNK (KOMATSU (CIV/JAS, JP) observed 0800 UTC 26 January 2020
Temperature: 9.0°C (48°F)
Dewpoint: -1.0°C (30°F) [RH = 49%]
Pressure (altimeter): 30.30 inches Hg (1026.0 mb)
Winds: from the NNE (30 degrees) at 14 MPH (12 knots; 6.2 m/s)
Visibility: 6 or more miles (10+ km)
Ceiling: 25000 feet AGL
Clouds: few clouds at 3000 feet AGL
broken clouds at 25000 feet AGL
Weather: no significant weather observed at this time

METAR text: RJNK 260700Z 04014KT 9999 FEW030 BKN250 10/M02 Q1025
Conditions at: RJNK (KOMATSU (CIV/JAS, JP) observed 0700 UTC 26 January 2020
Temperature: 10.0°C (50°F)
Dewpoint: -2.0°C (28°F) [RH = 43%]
Pressure (altimeter): 30.27 inches Hg (1025.0 mb)
Winds: from the NE (40 degrees) at 16 MPH (14 knots; 7.2 m/s)
Visibility: 6 or more miles (10+ km)
Ceiling: 25000 feet AGL
Clouds: few clouds at 3000 feet AGL
broken clouds at 25000 feet AGL
Weather: no significant weather observed at this time

METAR text: RJNK 260600Z 04013KT 9999 FEW030 SCT230 BKN250 11/M01 Q1024
Conditions at: RJNK (KOMATSU (CIV/JAS, JP) observed 0600 UTC 26 January 2020
Temperature: 11.0°C (52°F)
Dewpoint: -1.0°C (30°F) [RH = 43%]
Pressure (altimeter): 30.24 inches Hg (1024.0 mb)
Winds: from the NE (40 degrees) at 15 MPH (13 knots; 6.7 m/s)
Visibility: 6 or more miles (10+ km)
Ceiling: 25000 feet AGL
Clouds: few clouds at 3000 feet AGL
scattered clouds at 23000 feet AGL
broken clouds at 25000 feet AGL
Weather: no significant weather observed at this time

METAR text: RJNK 260500Z 03014KT 9999 FEW030 SCT230 BKN250 12/M03 Q1024
Conditions at: RJNK (KOMATSU (CIV/JAS, JP) observed 0500 UTC 26 January 2020
Temperature: 12.0°C (54°F)
Dewpoint: -3.0°C (27°F) [RH = 35%]
Pressure (altimeter): 30.24 inches Hg (1024.0 mb)
Winds: from the NNE (30 degrees) at 16 MPH (14 knots; 7.2 m/s)
Visibility: 6 or more miles (10+ km)
Ceiling: 25000 feet AGL
Clouds: few clouds at 3000 feet AGL
scattered clouds at 23000 feet AGL
broken clouds at 25000 feet AGL
Weather: no significant weather observed at this time

METAR text: RJNK 260400Z 03012KT 9999 FEW180 BKN250 12/M04 Q1024
Conditions at: RJNK (KOMATSU (CIV/JAS, JP) observed 0400 UTC 26 January 2020
Temperature: 12.0°C (54°F)
Dewpoint: -4.0°C (25°F) [RH = 32%]
Pressure (altimeter): 30.24 inches Hg (1024.0 mb)
Winds: from the NNE (30 degrees) at 14 MPH (12 knots; 6.2 m/s)
Visibility: 6 or more miles (10+ km)
Ceiling: 25000 feet AGL
Clouds: few clouds at 18000 feet AGL
broken clouds at 25000 feet AGL
Weather: no significant weather observed at this time

METAR text: RJNK 260300Z 03009KT 360V060 9999 FEW030 SCT180 12/M04 Q1025
Conditions at: RJNK (KOMATSU (CIV/JAS, JP) observed 0300 UTC 26 January 2020
Temperature: 12.0°C (54°F)
Dewpoint: -4.0°C (25°F) [RH = 32%]
Pressure (altimeter): 30.27 inches Hg (1025.0 mb)
Winds: from the NNE (30 degrees) at 10 MPH (9 knots; 4.6 m/s)
Visibility: 6 or more miles (10+ km)
Ceiling: at least 12,000 feet AGL
Clouds: few clouds at 3000 feet AGL
scattered clouds at 18000 feet AGL
Weather: no significant weather observed at this time

METAR text: RJNK 260200Z 07006KT 030V100 9999 FEW180 10/M02 Q1026
Conditions at: RJNK (KOMATSU (CIV/JAS, JP) observed 0200 UTC 26 January 2020
Temperature: 10.0°C (50°F)
Dewpoint: -2.0°C (28°F) [RH = 43%]
Pressure (altimeter): 30.30 inches Hg (1026.0 mb)
Winds: from the ENE (70 degrees) at 7 MPH (6 knots; 3.1 m/s)
Visibility: 6 or more miles (10+ km)
Ceiling: at least 12,000 feet AGL
Clouds: few clouds at 18000 feet AGL
Weather: no significant weather observed at this time

METAR text: RJNK 260100Z VRB02KT 9999 FEW030 06/01 Q1026
Conditions at: RJNK (KOMATSU (CIV/JAS, JP) observed 0100 UTC 26 January 2020
Temperature: 6.0°C (43°F)
Dewpoint: 1.0°C (34°F) [RH = 70%]
Pressure (altimeter): 30.30 inches Hg (1026.0 mb)
Winds: variable direction winds at 2 MPH (2 knots; 1.0 m/s)
Visibility: 6 or more miles (10+ km)
Ceiling: at least 12,000 feet AGL
Clouds: few clouds at 3000 feet AGL
Weather: no significant weather observed at this time

METAR text: RJNK 260000Z VRB01KT 9999 FEW030 BKN180 03/01 Q1026
Conditions at: RJNK (KOMATSU (CIV/JAS, JP) observed 0000 UTC 26 January 2020
Temperature: 3.0°C (37°F)
Dewpoint: 1.0°C (34°F) [RH = 87%]
Pressure (altimeter): 30.30 inches Hg (1026.0 mb)
Winds: variable direction winds at 1 MPH (1 knots; 0.5 m/s)
Visibility: 6 or more miles (10+ km)
Ceiling: 18000 feet AGL
Clouds: few clouds at 3000 feet AGL
broken clouds at 18000 feet AGL
Weather: no significant weather observed at this time

METAR text: RJNK 252300Z 11002KT 9999 FEW030 SCT150 BKN180 03/01 Q1025
Conditions at: RJNK (KOMATSU (CIV/JAS, JP) observed 2300 UTC 25 January 2020
Temperature: 3.0°C (37°F)
Dewpoint: 1.0°C (34°F) [RH = 87%]
Pressure (altimeter): 30.27 inches Hg (1025.0 mb)
Winds: from the ESE (110 degrees) at 2 MPH (2 knots; 1.0 m/s)
Visibility: 6 or more miles (10+ km)
Ceiling: 18000 feet AGL
Clouds: few clouds at 3000 feet AGL
scattered clouds at 15000 feet AGL
broken clouds at 18000 feet AGL
Weather: no significant weather observed at this time

METAR text: RJNK 252200Z VRB02KT 9999 FEW030 SCT150 BKN180 02/00 Q1025
Conditions at: RJNK (KOMATSU (CIV/JAS, JP) observed 2200 UTC 25 January 2020
Temperature: 2.0°C (36°F)
Dewpoint: 0.0°C (32°F) [RH = 87%]
Pressure (altimeter): 30.27 inches Hg (1025.0 mb)
Winds: variable direction winds at 2 MPH (2 knots; 1.0 m/s)
Visibility: 6 or more miles (10+ km)
Ceiling: 18000 feet AGL
Clouds: few clouds at 3000 feet AGL
scattered clouds at 15000 feet AGL
broken clouds at 18000 feet AGL
Weather: no significant weather observed at this time

METAR text: RJNK 252100Z 08003KT 9999 FEW030 BKN150 BKN180 02/01 Q1025
Conditions at: RJNK (KOMATSU (CIV/JAS, JP) observed 2100 UTC 25 January 2020
Temperature: 2.0°C (36°F)
Dewpoint: 1.0°C (34°F) [RH = 93%]
Pressure (altimeter): 30.27 inches Hg (1025.0 mb)
Winds: from the E (80 degrees) at 3 MPH (3 knots; 1.5 m/s)
Visibility: 6 or more miles (10+ km)
Ceiling: 15000 feet AGL
Clouds: few clouds at 3000 feet AGL
broken clouds at 15000 feet AGL
broken clouds at 18000 feet AGL
Weather: no significant weather observed at this time

METAR text: RJNK 252000Z 16002KT 9999 FEW030 BKN150 BKN180 03/00 Q1025
Conditions at: RJNK (KOMATSU (CIV/JAS, JP) observed 2000 UTC 25 January 2020
Temperature: 3.0°C (37°F)
Dewpoint: 0.0°C (32°F) [RH = 81%]
Pressure (altimeter): 30.27 inches Hg (1025.0 mb)
Winds: from the SSE (160 degrees) at 2 MPH (2 knots; 1.0 m/s)
Visibility: 6 or more miles (10+ km)
Ceiling: 15000 feet AGL
Clouds: few clouds at 3000 feet AGL
broken clouds at 15000 feet AGL
broken clouds at 18000 feet AGL
Weather: no significant weather observed at this time

METAR text: RJNK 251900Z 18001KT 9999 FEW030 BKN150 BKN180 03/01 Q1025
Conditions at: RJNK (KOMATSU (CIV/JAS, JP) observed 1900 UTC 25 January 2020
Temperature: 3.0°C (37°F)
Dewpoint: 1.0°C (34°F) [RH = 87%]
Pressure (altimeter): 30.27 inches Hg (1025.0 mb)
Winds: from the S (180 degrees) at 1 MPH (1 knots; 0.5 m/s)
Visibility: 6 or more miles (10+ km)
Ceiling: 15000 feet AGL
Clouds: few clouds at 3000 feet AGL
broken clouds at 15000 feet AGL
broken clouds at 18000 feet AGL
Weather: no significant weather observed at this time

METAR text: RJNK 251800Z 15003KT 110V180 9999 FEW030 BKN150 BKN180 03/01 Q1025
Conditions at: RJNK (KOMATSU (CIV/JAS, JP) observed 1800 UTC 25 January 2020
Temperature: 3.0°C (37°F)
Dewpoint: 1.0°C (34°F) [RH = 87%]
Pressure (altimeter): 30.27 inches Hg (1025.0 mb)
Winds: from the SSE (150 degrees) at 3 MPH (3 knots; 1.5 m/s)
Visibility: 6 or more miles (10+ km)
Ceiling: 15000 feet AGL
Clouds: few clouds at 3000 feet AGL
broken clouds at 15000 feet AGL
broken clouds at 18000 feet AGL
Weather: no significant weather observed at this time

METAR text: RJNK 251700Z 17003KT 120V200 9999 FEW030 BKN130 BKN180 03/01 Q1025
Conditions at: RJNK (KOMATSU (CIV/JAS, JP) observed 1700 UTC 25 January 2020
Temperature: 3.0°C (37°F)
Dewpoint: 1.0°C (34°F) [RH = 87%]
Pressure (altimeter): 30.27 inches Hg (1025.0 mb)
Winds: from the S (170 degrees) at 3 MPH (3 knots; 1.5 m/s)
Visibility: 6 or more miles (10+ km)
Ceiling: 13000 feet AGL
Clouds: few clouds at 3000 feet AGL
broken clouds at 13000 feet AGL
broken clouds at 18000 feet AGL
Weather: no significant weather observed at this time

METAR text: RJNK 251600Z 18003KT 140V200 9999 FEW030 BKN130 04/00 Q1026
Conditions at: RJNK (KOMATSU (CIV/JAS, JP) observed 1600 UTC 25 January 2020
Temperature: 4.0°C (39°F)
Dewpoint: 0.0°C (32°F) [RH = 75%]
Pressure (altimeter): 30.30 inches Hg (1026.0 mb)
Winds: from the S (180 degrees) at 3 MPH (3 knots; 1.5 m/s)
Visibility: 6 or more miles (10+ km)
Ceiling: 13000 feet AGL
Clouds: few clouds at 3000 feet AGL
broken clouds at 13000 feet AGL
Weather: no significant weather observed at this time

METAR text: RJNK 251500Z 12002KT 9999 FEW030 BKN130 BKN150 04/00 Q1026
Conditions at: RJNK (KOMATSU (CIV/JAS, JP) observed 1500 UTC 25 January 2020
Temperature: 4.0°C (39°F)
Dewpoint: 0.0°C (32°F) [RH = 75%]
Pressure (altimeter): 30.30 inches Hg (1026.0 mb)
Winds: from the ESE (120 degrees) at 2 MPH (2 knots; 1.0 m/s)
Visibility: 6 or more miles (10+ km)
Ceiling: 13000 feet AGL
Clouds: few clouds at 3000 feet AGL
broken clouds at 13000 feet AGL
broken clouds at 15000 feet AGL
Weather: no significant weather observed at this time

METAR text: RJNK 251400Z 10003KT 070V130 9999 FEW030 BKN130 BKN150 04/M02 Q1027
Conditions at: RJNK (KOMATSU (CIV/JAS, JP) observed 1400 UTC 25 January 2020
Temperature: 4.0°C (39°F)
Dewpoint: -2.0°C (28°F) [RH = 65%]
Pressure (altimeter): 30.32 inches Hg (1027.0 mb)
Winds: from the E (100 degrees) at 3 MPH (3 knots; 1.5 m/s)
Visibility: 6 or more miles (10+ km)
Ceiling: 13000 feet AGL
Clouds: few clouds at 3000 feet AGL
broken clouds at 13000 feet AGL
broken clouds at 15000 feet AGL
Weather: no significant weather observed at this time

METAR text: RJNK 251300Z 09005KT 050V120 9999 FEW030 SCT130 BKN150 05/M05 Q1027
Conditions at: RJNK (KOMATSU (CIV/JAS, JP) observed 1300 UTC 25 January 2020
Temperature: 5.0°C (41°F)
Dewpoint: -5.0°C (23°F) [RH = 48%]
Pressure (altimeter): 30.32 inches Hg (1027.0 mb)
Winds: from the E (90 degrees) at 6 MPH (5 knots; 2.6 m/s)
Visibility: 6 or more miles (10+ km)
Ceiling: 15000 feet AGL
Clouds: few clouds at 3000 feet AGL
scattered clouds at 13000 feet AGL
broken clouds at 15000 feet AGL
Weather: no significant weather observed at this time

METAR text: RJNK 251200Z 06007KT 9999 FEW030 SCT130 BKN150 06/M05 Q1027
Conditions at: RJNK (KOMATSU (CIV/JAS, JP) observed 1200 UTC 25 January 2020
Temperature: 6.0°C (43°F)
Dewpoint: -5.0°C (23°F) [RH = 45%]
Pressure (altimeter): 30.32 inches Hg (1027.0 mb)
Winds: from the ENE (60 degrees) at 8 MPH (7 knots; 3.6 m/s)
Visibility: 6 or more miles (10+ km)
Ceiling: 15000 feet AGL
Clouds: few clouds at 3000 feet AGL
scattered clouds at 13000 feet AGL
broken clouds at 15000 feet AGL
Weather: no significant weather observed at this time

METAR text: RJNK 251100Z 07003KT 020V110 9999 FEW030 BKN150 BKN180 05/M03 Q1027
Conditions at: RJNK (KOMATSU (CIV/JAS, JP) observed 1100 UTC 25 January 2020
Temperature: 5.0°C (41°F)
Dewpoint: -3.0°C (27°F) [RH = 56%]
Pressure (altimeter): 30.32 inches Hg (1027.0 mb)
Winds: from the ENE (70 degrees) at 3 MPH (3 knots; 1.5 m/s)
Visibility: 6 or more miles (10+ km)
Ceiling: 15000 feet AGL
Clouds: few clouds at 3000 feet AGL
broken clouds at 15000 feet AGL
broken clouds at 18000 feet AGL
Weather: no significant weather observed at this time

METAR text: RJNK 251000Z 05009KT 9999 FEW030 BKN150 BKN180 06/M05 Q1028
Conditions at: RJNK (KOMATSU (CIV/JAS, JP) observed 1000 UTC 25 January 2020
Temperature: 6.0°C (43°F)
Dewpoint: -5.0°C (23°F) [RH = 45%]
Pressure (altimeter): 30.35 inches Hg (1028.0 mb)
Winds: from the NE (50 degrees) at 10 MPH (9 knots; 4.6 m/s)
Visibility: 6 or more miles (10+ km)
Ceiling: 15000 feet AGL
Clouds: few clouds at 3000 feet AGL
broken clouds at 15000 feet AGL
broken clouds at 18000 feet AGL
Weather: no significant weather observed at this time

METAR text: RJNK 250900Z 04015KT 9999 FEW030 BKN150 BKN180 06/M02 Q1028
Conditions at: RJNK (KOMATSU (CIV/JAS, JP) observed 0900 UTC 25 January 2020
Temperature: 6.0°C (43°F)
Dewpoint: -2.0°C (28°F) [RH = 56%]
Pressure (altimeter): 30.35 inches Hg (1028.0 mb)
Winds: from the NE (40 degrees) at 17 MPH (15 knots; 7.7 m/s)
Visibility: 6 or more miles (10+ km)
Ceiling: 15000 feet AGL
Clouds: few clouds at 3000 feet AGL
broken clouds at 15000 feet AGL
broken clouds at 18000 feet AGL
Weather: no significant weather observed at this time

METAR text: RJNK 250800Z 04016KT 9999 FEW030 BKN150 BKN180 06/M02 Q1029
Conditions at: RJNK (KOMATSU (CIV/JAS, JP) observed 0800 UTC 25 January 2020
Temperature: 6.0°C (43°F)
Dewpoint: -2.0°C (28°F) [RH = 56%]
Pressure (altimeter): 30.38 inches Hg (1029.0 mb)
Winds: from the NE (40 degrees) at 18 MPH (16 knots; 8.2 m/s)
Visibility: 6 or more miles (10+ km)
Ceiling: 15000 feet AGL
Clouds: few clouds at 3000 feet AGL
broken clouds at 15000 feet AGL
broken clouds at 18000 feet AGL
Weather: no significant weather observed at this time

METAR text: RJNK 250700Z 04017KT 9999 FEW030 SCT150 BKN180 07/M03 Q1029
Conditions at: RJNK (KOMATSU (CIV/JAS, JP) observed 0700 UTC 25 January 2020
Temperature: 7.0°C (45°F)
Dewpoint: -3.0°C (27°F) [RH = 49%]
Pressure (altimeter): 30.38 inches Hg (1029.0 mb)
Winds: from the NE (40 degrees) at 20 MPH (17 knots; 8.7 m/s)
Visibility: 6 or more miles (10+ km)
Ceiling: 18000 feet AGL
Clouds: few clouds at 3000 feet AGL
scattered clouds at 15000 feet AGL
broken clouds at 18000 feet AGL
Weather: no significant weather observed at this time

METAR text: RJNK 250600Z 04016KT 9999 FEW030 BKN180 08/M02 Q1029
Conditions at: RJNK (KOMATSU (CIV/JAS, JP) observed 0600 UTC 25 January 2020
Temperature: 8.0°C (46°F)
Dewpoint: -2.0°C (28°F) [RH = 49%]
Pressure (altimeter): 30.38 inches Hg (1029.0 mb)
Winds: from the NE (40 degrees) at 18 MPH (16 knots; 8.2 m/s)
Visibility: 6 or more miles (10+ km)
Ceiling: 18000 feet AGL
Clouds: few clouds at 3000 feet AGL
broken clouds at 18000 feet AGL
Weather: no significant weather observed at this time

METAR text: RJNK 250500Z 04016KT 9999 FEW030 SCT180 BKN230 08/M02 Q1028
Conditions at: RJNK (KOMATSU (CIV/JAS, JP) observed 0500 UTC 25 January 2020
Temperature: 8.0°C (46°F)
Dewpoint: -2.0°C (28°F) [RH = 49%]
Pressure (altimeter): 30.35 inches Hg (1028.0 mb)
Winds: from the NE (40 degrees) at 18 MPH (16 knots; 8.2 m/s)
Visibility: 6 or more miles (10+ km)
Ceiling: 23000 feet AGL
Clouds: few clouds at 3000 feet AGL
scattered clouds at 18000 feet AGL
broken clouds at 23000 feet AGL
Weather: no significant weather observed at this time

METAR text: RJNK 250400Z 04017KT 9999 FEW030 BKN270 08/M03 Q1029
Conditions at: RJNK (KOMATSU (CIV/JAS, JP) observed 0400 UTC 25 January 2020
Temperature: 8.0°C (46°F)
Dewpoint: -3.0°C (27°F) [RH = 46%]
Pressure (altimeter): 30.38 inches Hg (1029.0 mb)
Winds: from the NE (40 degrees) at 20 MPH (17 knots; 8.7 m/s)
Visibility: 6 or more miles (10+ km)
Ceiling: 27000 feet AGL
Clouds: few clouds at 3000 feet AGL
broken clouds at 27000 feet AGL
Weather: no significant weather observed at this time

METAR text: RJNK 250300Z 04018KT 9999 FEW030 BKN270 07/M03 Q1030
Conditions at: RJNK (KOMATSU (CIV/JAS, JP) observed 0300 UTC 25 January 2020
Temperature: 7.0°C (45°F)
Dewpoint: -3.0°C (27°F) [RH = 49%]
Pressure (altimeter): 30.41 inches Hg (1030.0 mb)
Winds: from the NE (40 degrees) at 21 MPH (18 knots; 9.3 m/s)
Visibility: 6 or more miles (10+ km)
Ceiling: 27000 feet AGL
Clouds: few clouds at 3000 feet AGL
broken clouds at 27000 feet AGL
Weather: no significant weather observed at this time

METAR text: RJNK 250200Z 03014KT 9999 FEW030 BKN270 06/M02 Q1031
Conditions at: RJNK (KOMATSU (CIV/JAS, JP) observed 0200 UTC 25 January 2020
Temperature: 6.0°C (43°F)
Dewpoint: -2.0°C (28°F) [RH = 56%]
Pressure (altimeter): 30.44 inches Hg (1031.0 mb)
Winds: from the NNE (30 degrees) at 16 MPH (14 knots; 7.2 m/s)
Visibility: 6 or more miles (10+ km)
Ceiling: 27000 feet AGL
Clouds: few clouds at 3000 feet AGL
broken clouds at 27000 feet AGL
Weather: no significant weather observed at this time

METAR text: RJNK 250100Z 03015KT 9999 FEW030 SCT200 BKN270 06/M03 Q1031
Conditions at: RJNK (KOMATSU (CIV/JAS, JP) observed 0100 UTC 25 January 2020
Temperature: 6.0°C (43°F)
Dewpoint: -3.0°C (27°F) [RH = 52%]
Pressure (altimeter): 30.44 inches Hg (1031.0 mb)
Winds: from the NNE (30 degrees) at 17 MPH (15 knots; 7.7 m/s)
Visibility: 6 or more miles (10+ km)
Ceiling: 27000 feet AGL
Clouds: few clouds at 3000 feet AGL
scattered clouds at 20000 feet AGL
broken clouds at 27000 feet AGL
Weather: no significant weather observed at this time

METAR text: RJNK 250000Z 03014KT 9999 FEW015 BKN270 05/M04 Q1032
Conditions at: RJNK (KOMATSU (CIV/JAS, JP) observed 0000 UTC 25 January 2020
Temperature: 5.0°C (41°F)
Dewpoint: -4.0°C (25°F) [RH = 52%]
Pressure (altimeter): 30.47 inches Hg (1032.0 mb)
Winds: from the NNE (30 degrees) at 16 MPH (14 knots; 7.2 m/s)
Visibility: 6 or more miles (10+ km)
Ceiling: 27000 feet AGL
Clouds: few clouds at 1500 feet AGL
broken clouds at 27000 feet AGL
Weather: no significant weather observed at this time

METAR text: RJNK 242300Z 03014KT 9999 FEW015 SCT220 BKN270 03/M05 Q1031
Conditions at: RJNK (KOMATSU (CIV/JAS, JP) observed 2300 UTC 24 January 2020
Temperature: 3.0°C (37°F)
Dewpoint: -5.0°C (23°F) [RH = 56%]
Pressure (altimeter): 30.44 inches Hg (1031.0 mb)
Winds: from the NNE (30 degrees) at 16 MPH (14 knots; 7.2 m/s)
Visibility: 6 or more miles (10+ km)
Ceiling: 27000 feet AGL
Clouds: few clouds at 1500 feet AGL
scattered clouds at 22000 feet AGL
broken clouds at 27000 feet AGL
Weather: no significant weather observed at this time

METAR text: RJNK 242200Z 03013KT 9999 FEW015 SCT/// 03/M04 Q1031
Conditions at: RJNK (KOMATSU (CIV/JAS, JP) observed 2200 UTC 24 January 2020
Temperature: 3.0°C (37°F)
Dewpoint: -4.0°C (25°F) [RH = 60%]
Pressure (altimeter): 30.44 inches Hg (1031.0 mb)
Winds: from the NNE (30 degrees) at 15 MPH (13 knots; 6.7 m/s)
Visibility: 6 or more miles (10+ km)
Ceiling: at least 12,000 feet AGL
Clouds: few clouds at 1500 feet AGL
Weather: no significant weather observed at this time

Forecast for: RJNK (KOMATSU (CIV/JAS, JP)
Text: TAF RJNK 260510Z 2606/2712 05012KT 9999 FEW030
Forecast period: 0600 UTC 26 January 2020 to 1200 UTC 27 January 2020
Forecast type: FROM: standard forecast or significant change
Winds: from the NE (50 degrees) at 14 MPH (12 knots; 6.2 m/s)
Visibility: 6 or more miles 10+ km)
Ceiling: at least 12,000 feet AGL
Clouds: few clouds at 3000 feet AGL
Weather: no significant weather forecast for this period